LRSB Airport Information

Runway Information
Runway 09 Length 6562 ft width 98 ft
Elevation 1496 ft Threshold 0 ft Heading 91
Runway 27 Length 6562 ft Width 98 ft
Elevation 1444 ft Threshold 0 ft Heading 271
Airport Frequencies
Type APP Name APP Frequency 122.7 MHZ
Type GCA Name PRECISON Frequency 121.3 MHZ
Type TWR Name TWR Frequency 122.7 MHZ
Airport Navaids
Type NDB Name Sibiu Frequency 381 KHZ
Airport Weather Information & NOTAM
ADDS - METARS form results

(2050 UTC 11 May 2021)
Data provider http://aviationweather.gov/metar/data/
 
METAR text: LRSB 112030Z 13008KT CAVOK 17/06 Q1012 NOSIG
Conditions at: LRSB (SIBIU/TURNISOR , RO) observed 2030 UTC 11 May 2021
Temperature: 17.0°C (63°F)
Dewpoint: 6.0°C (43°F) [RH = 48%]
Pressure (altimeter): 29.88 inches Hg (1012.0 mb)
Winds: from the SE (130 degrees) at 9 MPH (8 knots; 4.1 m/s)
Visibility: 6 or more miles (10+ km)
Ceiling: ceiling and visibility are OK
Clouds: unknown
Weather: no significant weather observed at this time

METAR text: LRSB 112000Z 13008KT CAVOK 17/06 Q1012 NOSIG
Conditions at: LRSB (SIBIU/TURNISOR , RO) observed 2000 UTC 11 May 2021
Temperature: 17.0°C (63°F)
Dewpoint: 6.0°C (43°F) [RH = 48%]
Pressure (altimeter): 29.88 inches Hg (1012.0 mb)
Winds: from the SE (130 degrees) at 9 MPH (8 knots; 4.1 m/s)
Visibility: 6 or more miles (10+ km)
Ceiling: ceiling and visibility are OK
Clouds: unknown
Weather: no significant weather observed at this time

Forecast for: LRSB (SIBIU/TURNISOR , RO)
Text: TAF LRSB 111700Z 1118/1218 13010KT CAVOK
Forecast period: 1800 to 2000 UTC 11 May 2021
Forecast type: FROM: standard forecast or significant change
Winds: from the SE (130 degrees) at 12 MPH (10 knots; 5.1 m/s)
Visibility: 6 or more miles (10+ km)
Ceiling: unknown
Clouds: missing
Weather: NSW  (no significant weather)
Text: BECMG 1120/1122 VRB04KT
Forecast period: 2000 UTC 11 May 2021 to 0800 UTC 12 May 2021
Forecast type: BECOMING: Conditions expected to become as follows by 2200 UTC 11 May 2021
Winds: variable direction winds at 5 MPH (4 knots; 2.1 m/s)
Visibility: 6 or more miles (10+ km)
Ceiling: unknown
Clouds: missing
Weather: NSW  (no significant weather)
Text: BECMG 1208/1210 11010KT
Forecast period: 0800 to 1400 UTC 12 May 2021
Forecast type: BECOMING: Conditions expected to become as follows by 1000 UTC 12 May 2021
Winds: from the ESE (110 degrees) at 12 MPH (10 knots; 5.1 m/s)
Visibility: 6 or more miles (10+ km)
Ceiling: unknown
Clouds: missing
Weather: NSW  (no significant weather)
Text: BECMG 1214/1216 17010KT
Forecast period: 1400 to 1800 UTC 12 May 2021
Forecast type: BECOMING: Conditions expected to become as follows by 1600 UTC 12 May 2021
Winds: from the S (170 degrees) at 12 MPH (10 knots; 5.1 m/s)
Visibility: 6 or more miles (10+ km)
Ceiling: unknown
Clouds: missing
Weather: NSW  (no significant weather)